Portada
METAR-TAF:

METAR-TAF

Aeroports :

Cairns, Austràlia

latitud: 16-53S, longitud: 145-45E, altitud: 3 m

Observació

L'informe es va fer fa 36 minuts, a les 03:30 UTC
Vent 8 kt del Nord-Est
Temperatura 33°C
Humitat 53%
Pressió 1005 hPa
Visibilitat 10 km o més

METAR: YBCS 200330Z AUTO 05008KT 9999 // NCD 33/22 Q1005 RF00.0/000.0 NOSIG

Hora: 14:06 (04:06 UTC)

Pronòstic

L'informe es va fer fa 5 hores i 0 minuts, a les 23:06 UTC
Pronòstic vàlid del 20 a les 00 UTC al 21 a les 00 UTC
Vent 5 kt del Nord-Est
Visibilitat 10 km o més
Núvols disperses a una alçada de 3500 ft
A partir de les 20 a les 0900 UTC
Vent 5 kt del Sud
Visibilitat 10 km o més
Núvols disperses a una alçada de 2500 ft

TAF: YBCS 192306Z 2000/2100 04005KT 9999 SCT035 FM200900 18005KT 9999 SCT025

Observacions i pronòstics meteorològics de més de 4000 aeroports (METAR i TAF).

Les estacions disponibles són els punts grocs i vermells al mapa.

Posi el ratolí al punt desitjat per veure el nom de l'estació.

Feu clic per veure les observacions i els pronòstics meteorològics.

Per canviar el mapa: feu clic els botons verds amb una creu de color negre per apropar; al botó verd amb un guió per allunyar la imatge; o en les fletxes verdes per a mapes adjacents.


METAR-TAF: